createdAt,value
2023-04-25T00:01:48.713Z,100876.38
2023-04-25T00:04:16.927Z,100869.44
2023-04-25T00:06:45.005Z,100873.66
2023-04-25T00:09:12.974Z,100878.66
2023-04-25T00:11:42.819Z,100883.75
2023-04-25T00:14:11.001Z,100879.31
2023-04-25T00:16:39.075Z,100885.81
2023-04-25T00:19:07.453Z,100884.59
2023-04-25T00:21:36.447Z,100894.75
2023-04-25T00:24:04.687Z,100898.25
2023-04-25T00:26:32.618Z,100910.97
2023-04-25T00:29:01.905Z,100905.41
2023-04-25T00:31:30.743Z,100902.59
2023-04-25T00:33:58.811Z,100909.50
2023-04-25T00:36:29.666Z,100911.81
2023-04-25T00:38:57.949Z,100905.84
2023-04-25T00:41:27.916Z,100906.78
2023-04-25T00:43:57.968Z,100901.81
2023-04-25T00:46:27.655Z,100910.31
2023-04-25T00:48:55.702Z,100908.66
2023-04-25T00:51:24.251Z,100907.56
2023-04-25T00:53:52.567Z,100904.84
2023-04-25T00:56:21.577Z,100907.31
2023-04-25T00:58:50.447Z,100906.69
2023-04-25T01:01:18.839Z,100912.13
2023-04-25T01:03:48.891Z,100903.75
2023-04-25T01:06:17.178Z,100915.72
2023-04-25T01:08:45.269Z,100910.94
2023-04-25T01:11:13.081Z,100904.66
2023-04-25T01:13:41.001Z,100909.09
2023-04-25T01:16:09.232Z,100912.19
2023-04-25T01:18:38.275Z,100905.28
2023-04-25T01:21:11.714Z,100908.31
2023-04-25T01:23:41.210Z,100907.78
2023-04-25T01:26:10.992Z,100905.28
2023-04-25T01:28:42.225Z,100914.13
2023-04-25T01:31:11.575Z,100917.38
2023-04-25T01:33:40.079Z,100916.84
2023-04-25T01:36:09.979Z,100920.75
2023-04-25T01:38:38.071Z,100919.19
2023-04-25T01:41:07.204Z,100919.34
2023-04-25T01:43:35.414Z,100919.88
2023-04-25T01:46:03.702Z,100917.34
2023-04-25T01:48:31.685Z,100925.31
2023-04-25T01:51:01.228Z,100924.22
2023-04-25T01:53:31.726Z,100917.56
2023-04-25T01:56:00.798Z,100935.91
2023-04-25T01:58:33.757Z,100934.41
2023-04-25T02:01:04.751Z,100935.41
2023-04-25T02:03:40.625Z,100940.16
2023-04-25T02:06:14.328Z,100938.44
2023-04-25T02:08:46.713Z,100942.47
2023-04-25T02:11:16.275Z,100934.91
2023-04-25T02:13:50.448Z,100957.25
2023-04-25T02:16:36.762Z,100951.13
2023-04-25T02:19:05.226Z,100949.09
2023-04-25T02:21:33.036Z,100952.03
2023-04-25T02:24:02.408Z,100962.50
2023-04-25T02:26:31.036Z,100962.09
2023-04-25T02:28:59.228Z,100963.72
2023-04-25T02:31:28.107Z,100957.81
2023-04-25T02:33:56.726Z,100958.66
2023-04-25T02:36:25.048Z,100959.88
2023-04-25T02:38:52.951Z,100956.75
2023-04-25T02:41:23.802Z,100961.88
2023-04-25T02:43:52.011Z,100951.13
2023-04-25T02:46:32.056Z,100969.31
2023-04-25T02:49:06.180Z,100954.22
2023-04-25T02:51:34.668Z,100940.38
2023-04-25T02:54:02.756Z,100954.41
2023-04-25T02:56:32.697Z,100952.63
2023-04-25T02:59:01.011Z,100964.22
2023-04-25T03:01:29.592Z,100953.66
2023-04-25T03:03:57.760Z,100962.38
2023-04-25T03:06:26.378Z,100961.25
2023-04-25T03:08:54.326Z,100960.09
2023-04-25T03:11:22.370Z,100961.03
2023-04-25T03:13:51.850Z,100966.31
2023-04-25T03:16:20.927Z,100968.47
2023-04-25T03:18:48.862Z,100969.16
2023-04-25T03:21:17.114Z,100960.88
2023-04-25T03:23:45.646Z,100964.66
2023-04-25T03:26:15.974Z,100962.59
2023-04-25T03:28:44.575Z,100963.75
2023-04-25T03:31:13.802Z,100966.91
2023-04-25T03:33:41.751Z,100979.50
2023-04-25T03:36:10.578Z,100969.31
2023-04-25T03:38:38.462Z,100978.88
2023-04-25T03:41:07.943Z,100975.63
2023-04-25T03:43:54.192Z,100971.78
2023-04-25T03:46:23.920Z,100973.63
2023-04-25T03:48:51.999Z,100982.22
2023-04-25T03:51:24.056Z,100988.06
2023-04-25T03:53:52.110Z,100996.66
2023-04-25T03:56:32.440Z,100997.63
2023-04-25T03:59:07.438Z,100998.50
2023-04-25T04:01:37.468Z,101000.47
2023-04-25T04:04:06.043Z,101002.59
2023-04-25T04:06:34.965Z,101001.47
2023-04-25T04:09:17.830Z,101007.16
2023-04-25T04:11:46.247Z,101009.34
2023-04-25T04:14:14.001Z,101008.44
2023-04-25T04:16:47.328Z,101020.88
2023-04-25T04:19:15.522Z,101019.88
2023-04-25T04:21:48.815Z,101026.84
2023-04-25T04:24:17.747Z,101025.00
2023-04-25T04:26:54.001Z,101026.19
2023-04-25T04:29:32.165Z,101025.31
2023-04-25T04:32:28.834Z,101024.16
2023-04-25T04:34:56.993Z,101026.56
2023-04-25T04:37:26.337Z,101027.75
2023-04-25T04:39:54.281Z,101037.66
2023-04-25T04:42:30.248Z,101027.34
2023-04-25T04:45:17.211Z,101032.31
2023-04-25T04:48:06.589Z,101042.22
2023-04-25T04:50:56.313Z,101053.63
2023-04-25T04:53:46.450Z,101049.91
2023-04-25T04:56:37.106Z,101042.31
2023-04-25T04:59:19.416Z,101059.75
2023-04-25T05:02:06.004Z,101087.09
2023-04-25T05:04:59.698Z,101087.13
2023-04-25T05:07:37.599Z,101090.13
2023-04-25T05:10:26.433Z,101080.31
2023-04-25T05:13:12.948Z,101083.53
2023-04-25T05:15:57.877Z,101088.72
2023-04-25T05:18:37.455Z,101088.69
2023-04-25T05:21:20.156Z,101084.28
2023-04-25T05:24:09.018Z,101092.28
2023-04-25T05:27:03.353Z,101080.56
2023-04-25T05:29:47.257Z,101084.97
2023-04-25T05:32:38.400Z,101089.69
2023-04-25T05:35:08.039Z,101082.00
2023-04-25T05:37:45.004Z,101083.81
2023-04-25T05:40:15.331Z,101092.53
2023-04-25T05:42:59.419Z,101097.69
2023-04-25T05:45:52.108Z,101094.25
2023-04-25T05:48:32.298Z,101098.09
2023-04-25T05:51:11.419Z,101108.97
2023-04-25T05:53:50.010Z,101111.22
2023-04-25T05:56:18.253Z,101116.66
2023-04-25T05:58:48.220Z,101131.25
2023-04-25T06:01:16.175Z,101124.84
2023-04-25T06:03:45.927Z,101126.53
2023-04-25T06:06:14.090Z,101114.28
2023-04-25T06:08:42.469Z,101106.53
2023-04-25T06:11:14.390Z,101108.53
2023-04-25T06:13:42.904Z,101118.25
2023-04-25T06:16:11.277Z,101126.25
2023-04-25T06:18:39.732Z,101119.94
2023-04-25T06:21:07.668Z,101129.66
2023-04-25T06:23:35.825Z,101132.25
2023-04-25T06:26:06.077Z,101140.13
2023-04-25T06:28:36.926Z,101136.66
2023-04-25T06:31:05.000Z,101134.81
2023-04-25T06:33:33.290Z,101141.06
2023-04-25T06:36:01.559Z,101136.66
2023-04-25T06:38:30.274Z,101133.06
2023-04-25T06:40:59.066Z,101138.94
2023-04-25T06:43:33.892Z,101139.38
2023-04-25T06:46:21.866Z,101151.06
2023-04-25T06:48:51.254Z,101161.81
2023-04-25T06:51:23.565Z,101156.97
2023-04-25T06:53:54.121Z,101160.22
2023-04-25T06:56:30.850Z,101173.22
2023-04-25T06:59:12.930Z,101169.78
2023-04-25T07:01:43.623Z,101170.53
2023-04-25T07:04:20.840Z,101172.50
2023-04-25T07:06:56.368Z,101173.38
2023-04-25T07:09:34.806Z,101169.53
2023-04-25T07:12:03.808Z,101170.47
2023-04-25T07:14:32.107Z,101170.34
2023-04-25T07:17:04.028Z,101167.06
2023-04-25T07:19:34.139Z,101175.34
2023-04-25T07:22:03.661Z,101173.66
2023-04-25T07:24:33.553Z,101184.78
2023-04-25T07:27:02.462Z,101191.38
2023-04-25T07:29:49.142Z,101195.53
2023-04-25T07:32:18.647Z,101197.66
2023-04-25T07:34:46.497Z,101197.06
2023-04-25T07:37:15.354Z,101185.78
2023-04-25T07:39:57.998Z,101195.63
2023-04-25T07:42:25.967Z,101205.09
2023-04-25T07:44:54.044Z,101199.25
2023-04-25T07:47:25.126Z,101210.97
2023-04-25T07:49:54.151Z,101205.94
2023-04-25T07:52:23.113Z,101215.25
2023-04-25T07:54:56.612Z,101213.38
2023-04-25T07:57:32.411Z,101230.53
2023-04-25T08:00:01.044Z,101228.69
2023-04-25T08:02:32.381Z,101235.50
2023-04-25T08:05:01.467Z,101261.94
2023-04-25T08:07:31.642Z,101260.09
2023-04-25T08:10:05.358Z,101282.59
2023-04-25T08:12:36.226Z,101300.41
2023-04-25T08:15:08.513Z,101319.78
2023-04-25T08:17:41.493Z,101301.41
2023-04-25T08:20:11.232Z,101293.34
2023-04-25T08:22:39.418Z,101285.09
2023-04-25T08:25:34.068Z,101279.91
2023-04-25T08:28:04.152Z,101270.03
2023-04-25T08:30:33.067Z,101273.09
2023-04-25T08:33:03.113Z,101281.88
2023-04-25T08:35:50.533Z,101284.84
2023-04-25T08:38:19.705Z,101284.75
2023-04-25T08:40:53.387Z,101283.81
2023-04-25T08:43:22.708Z,101283.44
2023-04-25T08:45:50.614Z,101281.16
2023-04-25T08:48:36.772Z,101291.91
2023-04-25T08:53:43.869Z,101287.34
2023-04-25T08:56:15.422Z,101304.63
2023-04-25T08:58:43.600Z,101304.81
2023-04-25T09:01:12.067Z,101299.84
2023-04-25T09:03:50.584Z,101297.38
2023-04-25T09:06:21.424Z,101296.97
2023-04-25T09:08:53.122Z,101297.69
2023-04-25T09:11:23.509Z,101299.84
2023-04-25T09:14:13.524Z,101297.69
2023-04-25T09:17:01.920Z,101303.69
2023-04-25T09:20:12.431Z,101314.41
2023-04-25T09:22:41.434Z,101306.53
2023-04-25T09:25:15.487Z,101313.00
2023-04-25T09:27:55.611Z,101325.56
2023-04-25T09:30:33.087Z,101321.41
2023-04-25T09:33:08.802Z,101338.44
2023-04-25T09:35:40.786Z,101332.56
2023-04-25T09:38:13.177Z,101333.00
2023-04-25T09:41:02.777Z,101342.00
2023-04-25T09:43:41.885Z,101347.56
2023-04-25T09:46:12.240Z,101332.44
2023-04-25T09:48:51.449Z,101340.88
2023-04-25T09:51:28.353Z,101350.00
2023-04-25T09:53:58.083Z,101340.00
2023-04-25T09:56:53.159Z,101345.00
2023-04-25T09:59:23.951Z,101366.19
2023-04-25T10:01:52.354Z,101364.31
2023-04-25T10:04:33.964Z,101361.44
2023-04-25T10:07:07.919Z,101369.59
2023-04-25T10:09:40.450Z,101392.63
2023-04-25T10:12:09.168Z,101388.09
2023-04-25T10:14:37.102Z,101387.16
2023-04-25T10:17:05.771Z,101396.16
2023-04-25T10:19:34.775Z,101386.28
2023-04-25T10:22:13.994Z,101392.00
2023-04-25T10:24:43.126Z,101388.31
2023-04-25T10:27:11.473Z,101391.63
2023-04-25T10:29:39.544Z,101386.47
2023-04-25T10:32:07.495Z,101373.06
2023-04-25T10:34:42.981Z,101387.38
2023-04-25T10:37:12.990Z,101388.22
2023-04-25T10:39:42.424Z,101379.06
2023-04-25T10:42:10.914Z,101402.63
2023-04-25T10:44:40.329Z,101395.94
2023-04-25T10:47:10.400Z,101423.78
2023-04-25T10:49:44.344Z,101419.16
2023-04-25T10:52:19.106Z,101414.47
2023-04-25T10:54:52.356Z,101408.75
2023-04-25T10:57:31.124Z,101409.63
2023-04-25T11:00:07.399Z,101413.94
2023-04-25T11:02:40.090Z,101415.09
2023-04-25T11:05:09.074Z,101405.56
2023-04-25T11:07:50.276Z,101389.06
2023-04-25T11:10:27.647Z,101397.41
2023-04-25T11:12:55.750Z,101403.09
2023-04-25T11:15:24.960Z,101416.81
2023-04-25T11:17:53.438Z,101412.97
2023-04-25T11:20:21.845Z,101408.41
2023-04-25T11:22:52.790Z,101407.81
2023-04-25T11:25:22.080Z,101407.69
2023-04-25T11:27:53.489Z,101417.84
2023-04-25T11:30:23.097Z,101420.94
2023-04-25T11:32:51.290Z,101431.25
2023-04-25T11:35:19.228Z,101426.56
2023-04-25T11:37:47.101Z,101434.44
2023-04-25T11:40:16.620Z,101425.84
2023-04-25T11:42:46.662Z,101442.59
2023-04-25T11:45:15.200Z,101426.84
2023-04-25T11:47:43.471Z,101457.31
2023-04-25T11:50:12.568Z,101436.72
2023-04-25T11:52:41.530Z,101456.31
2023-04-25T11:55:11.658Z,101456.41
2023-04-25T11:57:42.322Z,101441.09
2023-04-25T12:00:15.845Z,101446.56
2023-04-25T12:02:49.025Z,101440.25
2023-04-25T12:07:49.114Z,101437.03
2023-04-25T12:10:21.359Z,101448.16
2023-04-25T12:12:50.888Z,101452.78
2023-04-25T12:15:21.373Z,101458.28
2023-04-25T12:17:50.772Z,101454.25
2023-04-25T12:20:20.712Z,101462.97
2023-04-25T12:22:49.931Z,101454.25
2023-04-25T12:25:39.406Z,101452.03
2023-04-25T12:28:16.430Z,101465.41
2023-04-25T12:30:58.856Z,101472.56
2023-04-25T12:33:28.185Z,101455.88
2023-04-25T12:35:56.956Z,101468.31
2023-04-25T12:38:30.359Z,101471.16
2023-04-25T12:40:58.564Z,101466.88
2023-04-25T12:43:28.482Z,101471.47
2023-04-25T12:45:57.793Z,101463.63
2023-04-25T12:48:26.183Z,101479.38
2023-04-25T12:50:54.712Z,101461.84
2023-04-25T12:53:23.692Z,101464.72
2023-04-25T12:55:52.803Z,101481.63
2023-04-25T12:58:21.614Z,101501.41
2023-04-25T13:00:51.015Z,101473.91
2023-04-25T13:03:19.819Z,101478.53
2023-04-25T13:05:48.085Z,101498.06
2023-04-25T13:08:16.383Z,101497.00
2023-04-25T13:10:44.719Z,101484.47
2023-04-25T13:13:12.599Z,101476.22
2023-04-25T13:15:40.625Z,101482.81
2023-04-25T13:18:10.286Z,101491.09
2023-04-25T13:20:38.209Z,101475.81
2023-04-25T13:23:06.517Z,101480.97
2023-04-25T13:25:35.180Z,101494.56
2023-04-25T13:28:04.036Z,101501.88
2023-04-25T13:30:32.093Z,101481.09
2023-04-25T13:33:04.423Z,101497.41
2023-04-25T13:35:34.833Z,101498.16
2023-04-25T13:38:02.815Z,101495.97
2023-04-25T13:40:31.077Z,101492.00
2023-04-25T13:42:58.981Z,101493.75
2023-04-25T13:45:27.362Z,101491.19
2023-04-25T13:47:55.445Z,101505.44
2023-04-25T13:50:23.702Z,101500.38
2023-04-25T13:52:52.874Z,101497.94
2023-04-25T13:55:21.236Z,101507.22
2023-04-25T13:57:49.198Z,101507.13
2023-04-25T14:00:18.269Z,101508.16
2023-04-25T14:05:14.455Z,101502.16
2023-04-25T14:07:42.425Z,101530.84
2023-04-25T14:10:12.342Z,101513.88
2023-04-25T14:12:40.120Z,101509.75
2023-04-25T14:15:08.744Z,101514.31
2023-04-25T14:17:36.551Z,101513.22
2023-04-25T14:20:06.846Z,101518.28
2023-04-25T14:22:34.882Z,101521.16
2023-04-25T14:25:02.667Z,101529.19
2023-04-25T14:27:31.904Z,101526.94
2023-04-25T14:29:59.875Z,101523.72
2023-04-25T14:32:27.729Z,101528.38
2023-04-25T14:34:55.733Z,101530.00
2023-04-25T14:37:23.539Z,101523.22
2023-04-25T14:39:51.369Z,101541.19
2023-04-25T14:42:19.176Z,101541.34
2023-04-25T14:44:48.324Z,101550.13
2023-04-25T14:47:16.695Z,101544.28
2023-04-25T14:49:44.549Z,101554.09
2023-04-25T14:52:12.382Z,101548.81
2023-04-25T14:54:40.105Z,101544.66
2023-04-25T14:57:08.802Z,101548.06
2023-04-25T14:59:36.818Z,101547.81
2023-04-25T15:02:06.154Z,101554.75
2023-04-25T15:04:34.338Z,101544.41
2023-04-25T15:07:02.292Z,101541.22
2023-04-25T15:09:30.312Z,101554.34
2023-04-25T15:11:59.120Z,101555.94
2023-04-25T15:14:26.957Z,101571.44
2023-04-25T15:16:54.878Z,101571.19
2023-04-25T15:19:24.375Z,101560.28
2023-04-25T15:21:52.263Z,101603.41
2023-04-25T15:24:20.264Z,101561.06
2023-04-25T15:26:48.130Z,101577.31
2023-04-25T15:29:16.488Z,101571.00
2023-04-25T15:31:44.468Z,101571.81
2023-04-25T15:34:12.446Z,101564.97
2023-04-25T15:36:41.626Z,101567.47
2023-04-25T15:39:09.521Z,101575.28
2023-04-25T15:41:38.203Z,101571.59
2023-04-25T15:44:07.912Z,101559.91
2023-04-25T15:46:36.500Z,101569.47
2023-04-25T15:49:06.066Z,101572.72
2023-04-25T15:51:36.240Z,101563.72
2023-04-25T15:54:06.759Z,101560.88
2023-04-25T15:56:36.014Z,101571.06
2023-04-25T15:59:04.301Z,101582.25
2023-04-25T16:01:33.284Z,101591.50
2023-04-25T16:04:01.885Z,101576.13
2023-04-25T16:06:30.483Z,101590.03
2023-04-25T16:08:58.527Z,101596.53
2023-04-25T16:11:27.842Z,101573.16
2023-04-25T16:13:55.680Z,101587.66
2023-04-25T16:16:23.540Z,101580.72
2023-04-25T16:18:51.419Z,101583.13
2023-04-25T16:22:36.887Z,101586.44
2023-04-25T16:25:31.140Z,101581.94
2023-04-25T16:28:39.687Z,101582.25
2023-04-25T16:31:07.843Z,101587.16
2023-04-25T16:33:35.841Z,101592.94
2023-04-25T16:36:04.124Z,101581.66
2023-04-25T16:38:31.857Z,101592.25
2023-04-25T16:40:59.941Z,101595.09
2023-04-25T16:43:29.147Z,101591.03
2023-04-25T16:45:56.951Z,101602.75
2023-04-25T16:48:25.194Z,101605.09
2023-04-25T16:50:53.359Z,101605.63
2023-04-25T16:53:22.078Z,101588.25
2023-04-25T16:55:50.186Z,101596.44
2023-04-25T16:58:18.077Z,101603.41
2023-04-25T17:00:47.996Z,101606.25
2023-04-25T17:03:17.169Z,101599.69
2023-04-25T17:05:45.024Z,101602.44
2023-04-25T17:08:12.925Z,101615.72
2023-04-25T17:10:40.846Z,101613.34
2023-04-25T17:13:08.742Z,101625.91
2023-04-25T17:15:36.511Z,101620.66
2023-04-25T17:18:06.042Z,101628.53
2023-04-25T17:20:34.069Z,101637.44
2023-04-25T17:23:02.215Z,101628.56
2023-04-25T17:25:30.462Z,101636.59
2023-04-25T17:27:58.279Z,101629.13
2023-04-25T17:30:26.872Z,101636.84
2023-04-25T17:32:54.804Z,101632.56
2023-04-25T17:35:24.659Z,101628.00
2023-04-25T17:37:52.636Z,101630.88
2023-04-25T17:40:20.998Z,101630.00
2023-04-25T17:42:49.012Z,101631.84
2023-04-25T17:45:17.493Z,101631.28
2023-04-25T17:47:45.561Z,101627.53
2023-04-25T17:50:16.600Z,101640.59
2023-04-25T17:52:48.151Z,101640.16
2023-04-25T17:55:15.978Z,101639.31
2023-04-25T17:57:43.736Z,101642.16
2023-04-25T18:00:13.011Z,101646.91
2023-04-25T18:02:41.558Z,101651.44
2023-04-25T18:05:10.909Z,101650.59
2023-04-25T18:07:39.035Z,101653.34
2023-04-25T18:10:10.522Z,101659.50
2023-04-25T18:12:38.489Z,101656.34
2023-04-25T18:15:07.631Z,101666.09
2023-04-25T18:17:39.907Z,101663.50
2023-04-25T18:20:11.988Z,101665.09
2023-04-25T18:22:39.839Z,101668.53
2023-04-25T18:25:11.021Z,101663.66
2023-04-25T18:27:39.372Z,101665.81
2023-04-25T18:30:10.901Z,101671.13
2023-04-25T18:32:39.947Z,101681.28
2023-04-25T18:35:10.330Z,101684.44
2023-04-25T18:37:39.631Z,101680.69
2023-04-25T18:40:13.870Z,101681.50
2023-04-25T18:42:41.888Z,101687.53
2023-04-25T18:45:11.042Z,101687.09
2023-04-25T18:47:38.992Z,101687.41
2023-04-25T18:50:08.166Z,101692.53
2023-04-25T18:52:36.369Z,101691.97
2023-04-25T18:55:05.091Z,101700.28
2023-04-25T18:57:34.797Z,101697.66
2023-04-25T19:00:06.783Z,101698.19
2023-04-25T19:02:36.993Z,101702.97
2023-04-25T19:05:06.129Z,101708.31
2023-04-25T19:07:34.118Z,101703.94
2023-04-25T19:10:02.264Z,101709.97
2023-04-25T19:12:30.195Z,101707.09
2023-04-25T19:14:59.459Z,101721.50
2023-04-25T19:17:29.042Z,101709.09
2023-04-25T19:19:58.198Z,101716.22
2023-04-25T19:22:27.459Z,101730.19
2023-04-25T19:25:03.043Z,101714.88
2023-04-25T19:27:38.134Z,101721.97
2023-04-25T19:30:09.039Z,101726.66
2023-04-25T19:32:38.126Z,101729.38
2023-04-25T19:35:10.941Z,101722.94
2023-04-25T19:37:45.714Z,101733.72
2023-04-25T19:40:14.919Z,101727.94
2023-04-25T19:42:42.833Z,101726.81
2023-04-25T19:45:13.210Z,101731.88
2023-04-25T19:47:41.946Z,101724.59
2023-04-25T19:50:10.814Z,101735.66
2023-04-25T19:52:39.537Z,101734.50
2023-04-25T19:55:09.776Z,101737.28
2023-04-25T19:57:38.031Z,101730.47
2023-04-25T20:00:10.791Z,101726.59
2023-04-25T20:02:45.275Z,101728.13
2023-04-25T20:05:15.431Z,101728.41
2023-04-25T20:07:43.542Z,101720.47
2023-04-25T20:10:13.967Z,101728.81
2023-04-25T20:12:45.154Z,101729.00
2023-04-25T20:15:13.292Z,101725.84
2023-04-25T20:17:41.828Z,101726.13
2023-04-25T20:20:12.574Z,101723.38
2023-04-25T20:22:41.114Z,101734.28
2023-04-25T20:25:10.859Z,101727.34
2023-04-25T20:27:38.900Z,101736.28
2023-04-25T20:30:08.484Z,101742.22
2023-04-25T20:32:36.784Z,101736.06
2023-04-25T20:35:07.280Z,101736.66
2023-04-25T20:37:37.572Z,101732.97
2023-04-25T20:40:07.556Z,101733.88
2023-04-25T20:42:36.296Z,101730.78
2023-04-25T20:45:07.530Z,101733.06
2023-04-25T20:47:36.030Z,101733.09
2023-04-25T20:50:06.091Z,101731.59
2023-04-25T20:52:35.409Z,101723.44
2023-04-25T20:55:05.353Z,101723.50
2023-04-25T20:57:35.665Z,101722.44
2023-04-25T21:00:11.893Z,101722.53
2023-04-25T21:02:39.815Z,101723.28
2023-04-25T21:05:08.295Z,101729.06
2023-04-25T21:07:36.635Z,101724.47
2023-04-25T21:10:06.748Z,101725.06
2023-04-25T21:12:35.586Z,101720.06
2023-04-25T21:15:04.632Z,101723.41
2023-04-25T21:17:32.572Z,101724.53
2023-04-25T21:20:00.410Z,101721.56
2023-04-25T21:22:28.646Z,101731.16
2023-04-25T21:24:57.213Z,101734.47
2023-04-25T21:27:26.506Z,101732.44
2023-04-25T21:29:54.415Z,101737.03
2023-04-25T21:32:22.306Z,101730.66
2023-04-25T21:34:50.165Z,101741.41
2023-04-25T21:37:17.989Z,101730.56
2023-04-25T21:39:48.022Z,101742.28
2023-04-25T21:42:15.825Z,101740.34
2023-04-25T21:44:45.041Z,101743.75
2023-04-25T21:47:12.915Z,101733.00
2023-04-25T21:49:41.122Z,101746.72
2023-04-25T21:52:09.679Z,101744.31
2023-04-25T21:54:37.495Z,101747.81
2023-04-25T21:57:05.341Z,101743.88
2023-04-25T21:59:33.153Z,101745.72
2023-04-25T22:02:02.343Z,101749.28
2023-04-25T22:04:31.001Z,101748.50
2023-04-25T22:06:59.080Z,101754.03
2023-04-25T22:09:27.146Z,101744.50
2023-04-25T22:11:55.246Z,101749.72
2023-04-25T22:14:25.076Z,101756.09
2023-04-25T22:16:54.276Z,101753.91
2023-04-25T22:19:23.431Z,101750.06
2023-04-25T22:21:51.260Z,101754.00
2023-04-25T22:24:19.198Z,101746.47
2023-04-25T22:26:47.003Z,101751.50
2023-04-25T22:29:14.810Z,101751.66
2023-04-25T22:31:43.135Z,101737.03
2023-04-25T22:34:10.917Z,101747.25
2023-04-25T22:36:40.010Z,101757.13
2023-04-25T22:39:08.883Z,101742.63
2023-04-25T22:41:37.140Z,101741.22
2023-04-25T22:44:05.142Z,101745.50
2023-04-25T22:46:33.033Z,101747.13
2023-04-25T22:49:01.383Z,101757.72
2023-04-25T22:51:31.125Z,101764.06
2023-04-25T22:54:00.857Z,101768.06
2023-04-25T22:56:30.732Z,101770.69
2023-04-25T22:58:58.512Z,101770.22
2023-04-25T23:01:27.927Z,101764.78
2023-04-25T23:03:56.888Z,101761.50
2023-04-25T23:06:24.852Z,101769.38
2023-04-25T23:08:52.934Z,101758.16
2023-04-25T23:11:23.819Z,101768.59
2023-04-25T23:13:51.561Z,101766.00
2023-04-25T23:16:19.298Z,101771.31
2023-04-25T23:18:47.095Z,101773.16
2023-04-25T23:21:14.830Z,101786.91
2023-04-25T23:23:42.676Z,101781.88
2023-04-25T23:26:11.053Z,101778.03
2023-04-25T23:28:48.951Z,101778.03
2023-04-25T23:31:17.087Z,101769.34
2023-04-25T23:33:44.938Z,101771.94
2023-04-25T23:36:19.839Z,101772.06
2023-04-25T23:38:47.689Z,101773.06
2023-04-25T23:41:15.734Z,101777.88
2023-04-25T23:43:45.143Z,101786.63
2023-04-25T23:46:13.601Z,101778.88
2023-04-25T23:48:41.674Z,101778.38
2023-04-25T23:51:09.615Z,101782.69
2023-04-25T23:53:37.330Z,101790.13
2023-04-25T23:56:05.938Z,101785.41
2023-04-25T23:58:33.783Z,101786.16
